createdAt,value
2022-11-09T18:27:17.524Z,206.20
2022-11-09T18:32:18.675Z,209.90
2022-11-09T18:37:16.140Z,262.80
2022-11-09T18:42:17.334Z,229.80
2022-11-09T18:47:26.024Z,214.10
2022-11-09T18:52:14.784Z,200.60
2022-11-09T18:57:19.506Z,191.30
2022-11-09T19:02:12.345Z,179.70
2022-11-09T19:07:12.548Z,174.10
2022-11-09T19:12:11.484Z,161.30
2022-11-09T19:17:13.021Z,156.10
2022-11-09T19:22:10.103Z,144.70
2022-11-09T19:27:08.307Z,140.70
2022-11-09T19:32:08.264Z,133.00
2022-11-09T19:37:08.787Z,125.70
2022-11-09T19:42:05.711Z,122.00
2022-11-09T19:47:05.034Z,115.90
2022-11-09T19:52:06.130Z,112.00
2022-11-09T19:57:04.761Z,104.90
2022-11-09T20:02:02.918Z,99.40
2022-11-09T20:07:02.220Z,96.50
2022-11-09T20:12:01.297Z,92.50
2022-11-09T20:17:03.417Z,87.10
2022-11-09T20:21:59.569Z,79.90
2022-11-09T20:26:59.999Z,75.80
2022-11-09T20:31:58.317Z,179.20
2022-11-09T20:36:57.481Z,264.30
2022-11-09T20:41:56.766Z,228.20
2022-11-09T20:46:55.885Z,186.70
2022-11-09T20:51:55.950Z,175.40
2022-11-09T20:56:55.448Z,286.70
2022-11-09T21:01:53.549Z,333.10
2022-11-09T21:06:53.919Z,271.10
2022-11-09T21:11:51.953Z,242.60
2022-11-09T21:16:51.146Z,214.00
2022-11-09T21:21:50.384Z,360.60
2022-11-09T21:26:50.595Z,390.90
2022-11-09T21:31:48.771Z,146.60
2022-11-09T21:36:48.001Z,131.50
2022-11-09T21:41:47.258Z,304.10
2022-11-09T21:46:46.733Z,76.00
2022-11-09T21:51:46.696Z,69.80
2022-11-09T21:56:45.887Z,57.80
2022-11-09T22:01:45.156Z,90.70
2022-11-09T22:06:44.278Z,72.80
2022-11-09T22:11:43.482Z,64.60
2022-11-09T22:16:42.685Z,63.80
2022-11-09T22:21:40.886Z,60.70
2022-11-09T22:26:40.137Z,178.70
2022-11-09T22:31:40.340Z,102.60
2022-11-09T22:36:38.626Z,66.30
2022-11-09T22:41:36.885Z,49.80
2022-11-09T22:46:37.151Z,49.70
2022-11-09T22:51:35.378Z,52.40
2022-11-09T22:56:35.631Z,41.50
2022-11-09T23:01:35.005Z,32.80
2022-11-09T23:06:34.090Z,38.30
2022-11-09T23:11:35.380Z,31.90
2022-11-09T23:16:31.564Z,48.30
2022-11-09T23:21:31.892Z,43.60
2022-11-09T23:26:30.104Z,27.00
2022-11-09T23:31:30.337Z,24.10
2022-11-09T23:36:28.622Z,26.40
2022-11-09T23:41:28.823Z,28.40
2022-11-09T23:46:29.015Z,41.50
2022-11-09T23:51:26.218Z,41.20
2022-11-09T23:56:26.398Z,53.00
